sensor_id;sensor_type;location;lat;lon;timestamp;P1;durP1;ratioP1;P2;durP2;ratioP2
45836;SDS011;31548;51.420;-0.040;2023-11-19T00:01:59;45.22;;;5.53;;
45836;SDS011;31548;51.420;-0.040;2023-11-19T00:04:27;43.60;;;5.82;;
45836;SDS011;31548;51.420;-0.040;2023-11-19T00:06:54;36.33;;;5.15;;
45836;SDS011;31548;51.420;-0.040;2023-11-19T00:09:24;44.15;;;6.78;;
45836;SDS011;31548;51.420;-0.040;2023-11-19T00:11:52;29.58;;;3.95;;
45836;SDS011;31548;51.420;-0.040;2023-11-19T00:14:20;51.90;;;6.90;;
45836;SDS011;31548;51.420;-0.040;2023-11-19T00:16:48;45.65;;;6.03;;
45836;SDS011;31548;51.420;-0.040;2023-11-19T00:19:17;34.65;;;4.53;;
45836;SDS011;31548;51.420;-0.040;2023-11-19T00:21:45;43.53;;;5.05;;
45836;SDS011;31548;51.420;-0.040;2023-11-19T00:24:12;39.33;;;5.47;;
45836;SDS011;31548;51.420;-0.040;2023-11-19T00:26:42;39.35;;;5.53;;
45836;SDS011;31548;51.420;-0.040;2023-11-19T00:29:10;43.22;;;6.80;;
45836;SDS011;31548;51.420;-0.040;2023-11-19T00:31:39;42.58;;;6.97;;
45836;SDS011;31548;51.420;-0.040;2023-11-19T00:34:07;41.95;;;4.82;;
45836;SDS011;31548;51.420;-0.040;2023-11-19T00:36:34;31.77;;;4.72;;
45836;SDS011;31548;51.420;-0.040;2023-11-19T00:39:02;44.60;;;5.80;;
45836;SDS011;31548;51.420;-0.040;2023-11-19T00:41:29;36.83;;;4.57;;
45836;SDS011;31548;51.420;-0.040;2023-11-19T00:43:57;49.42;;;6.53;;
45836;SDS011;31548;51.420;-0.040;2023-11-19T00:46:24;40.17;;;4.78;;
45836;SDS011;31548;51.420;-0.040;2023-11-19T00:48:51;46.45;;;6.93;;
45836;SDS011;31548;51.420;-0.040;2023-11-19T00:51:19;40.05;;;6.60;;
45836;SDS011;31548;51.420;-0.040;2023-11-19T00:53:47;39.08;;;5.25;;
45836;SDS011;31548;51.420;-0.040;2023-11-19T00:56:14;33.88;;;4.47;;
45836;SDS011;31548;51.420;-0.040;2023-11-19T00:58:42;34.15;;;4.53;;
45836;SDS011;31548;51.420;-0.040;2023-11-19T01:01:11;33.53;;;5.40;;
45836;SDS011;31548;51.420;-0.040;2023-11-19T01:03:38;35.33;;;6.55;;
45836;SDS011;31548;51.420;-0.040;2023-11-19T01:06:06;37.17;;;6.65;;
45836;SDS011;31548;51.420;-0.040;2023-11-19T01:08:36;45.38;;;6.78;;
45836;SDS011;31548;51.420;-0.040;2023-11-19T01:11:03;37.80;;;5.95;;
45836;SDS011;31548;51.420;-0.040;2023-11-19T01:13:31;34.03;;;5.07;;
45836;SDS011;31548;51.420;-0.040;2023-11-19T01:15:58;31.35;;;7.32;;
45836;SDS011;31548;51.420;-0.040;2023-11-19T01:18:26;45.00;;;6.13;;
45836;SDS011;31548;51.420;-0.040;2023-11-19T01:20:53;45.95;;;6.00;;
45836;SDS011;31548;51.420;-0.040;2023-11-19T01:23:20;52.40;;;5.47;;
45836;SDS011;31548;51.420;-0.040;2023-11-19T01:25:48;35.05;;;6.07;;
45836;SDS011;31548;51.420;-0.040;2023-11-19T01:28:15;41.70;;;6.25;;
45836;SDS011;31548;51.420;-0.040;2023-11-19T01:30:43;47.58;;;6.43;;
45836;SDS011;31548;51.420;-0.040;2023-11-19T01:33:10;38.75;;;5.65;;
45836;SDS011;31548;51.420;-0.040;2023-11-19T01:35:37;41.47;;;5.22;;
45836;SDS011;31548;51.420;-0.040;2023-11-19T01:38:05;43.50;;;5.40;;
45836;SDS011;31548;51.420;-0.040;2023-11-19T01:40:32;35.70;;;5.07;;
45836;SDS011;31548;51.420;-0.040;2023-11-19T01:43:00;39.00;;;6.18;;
45836;SDS011;31548;51.420;-0.040;2023-11-19T01:45:27;44.17;;;6.75;;
45836;SDS011;31548;51.420;-0.040;2023-11-19T01:48:00;38.42;;;4.93;;
45836;SDS011;31548;51.420;-0.040;2023-11-19T01:50:32;52.20;;;8.15;;
45836;SDS011;31548;51.420;-0.040;2023-11-19T01:53:00;36.63;;;4.97;;
45836;SDS011;31548;51.420;-0.040;2023-11-19T01:55:28;41.10;;;6.55;;
45836;SDS011;31548;51.420;-0.040;2023-11-19T01:57:55;46.38;;;6.10;;
45836;SDS011;31548;51.420;-0.040;2023-11-19T02:00:27;33.33;;;3.55;;
45836;SDS011;31548;51.420;-0.040;2023-11-19T02:02:55;33.30;;;4.85;;
45836;SDS011;31548;51.420;-0.040;2023-11-19T02:05:23;40.22;;;5.00;;
45836;SDS011;31548;51.420;-0.040;2023-11-19T02:07:52;40.17;;;5.25;;
45836;SDS011;31548;51.420;-0.040;2023-11-19T02:10:19;35.83;;;5.45;;
45836;SDS011;31548;51.420;-0.040;2023-11-19T02:12:47;32.70;;;4.65;;
45836;SDS011;31548;51.420;-0.040;2023-11-19T02:15:15;36.58;;;5.30;;
45836;SDS011;31548;51.420;-0.040;2023-11-19T02:17:45;46.28;;;5.68;;
45836;SDS011;31548;51.420;-0.040;2023-11-19T02:20:13;44.55;;;5.53;;
45836;SDS011;31548;51.420;-0.040;2023-11-19T02:22:42;39.63;;;4.82;;
45836;SDS011;31548;51.420;-0.040;2023-11-19T02:25:12;45.20;;;7.15;;
45836;SDS011;31548;51.420;-0.040;2023-11-19T02:27:51;41.33;;;4.50;;
45836;SDS011;31548;51.420;-0.040;2023-11-19T02:30:24;26.40;;;4.85;;
45836;SDS011;31548;51.420;-0.040;2023-11-19T02:32:55;44.70;;;4.80;;
45836;SDS011;31548;51.420;-0.040;2023-11-19T02:35:28;27.75;;;3.47;;
45836;SDS011;31548;51.420;-0.040;2023-11-19T02:37:59;38.35;;;4.45;;
45836;SDS011;31548;51.420;-0.040;2023-11-19T02:40:27;38.63;;;5.78;;
45836;SDS011;31548;51.420;-0.040;2023-11-19T02:42:54;34.45;;;4.13;;
45836;SDS011;31548;51.420;-0.040;2023-11-19T02:45:23;44.40;;;6.00;;
45836;SDS011;31548;51.420;-0.040;2023-11-19T02:47:52;40.80;;;4.85;;
45836;SDS011;31548;51.420;-0.040;2023-11-19T02:50:21;41.17;;;5.55;;
45836;SDS011;31548;51.420;-0.040;2023-11-19T02:52:54;55.75;;;6.75;;
45836;SDS011;31548;51.420;-0.040;2023-11-19T02:55:24;27.02;;;4.15;;
45836;SDS011;31548;51.420;-0.040;2023-11-19T02:57:52;38.72;;;5.13;;
45836;SDS011;31548;51.420;-0.040;2023-11-19T03:00:20;38.90;;;5.70;;
45836;SDS011;31548;51.420;-0.040;2023-11-19T03:02:59;44.63;;;5.75;;
45836;SDS011;31548;51.420;-0.040;2023-11-19T03:05:32;46.90;;;6.80;;
45836;SDS011;31548;51.420;-0.040;2023-11-19T03:07:59;43.20;;;4.72;;
45836;SDS011;31548;51.420;-0.040;2023-11-19T03:10:27;34.17;;;4.07;;
45836;SDS011;31548;51.420;-0.040;2023-11-19T03:12:56;45.25;;;7.18;;
45836;SDS011;31548;51.420;-0.040;2023-11-19T03:15:23;40.53;;;6.07;;
45836;SDS011;31548;51.420;-0.040;2023-11-19T03:17:51;39.70;;;4.88;;
45836;SDS011;31548;51.420;-0.040;2023-11-19T03:20:19;33.50;;;4.40;;
45836;SDS011;31548;51.420;-0.040;2023-11-19T03:22:47;43.67;;;5.15;;
45836;SDS011;31548;51.420;-0.040;2023-11-19T03:25:15;32.95;;;4.47;;
45836;SDS011;31548;51.420;-0.040;2023-11-19T03:27:43;36.38;;;5.05;;
45836;SDS011;31548;51.420;-0.040;2023-11-19T03:30:10;41.17;;;5.95;;
45836;SDS011;31548;51.420;-0.040;2023-11-19T03:32:38;31.45;;;4.75;;
45836;SDS011;31548;51.420;-0.040;2023-11-19T03:35:06;42.50;;;5.70;;
45836;SDS011;31548;51.420;-0.040;2023-11-19T03:37:38;35.60;;;4.70;;
45836;SDS011;31548;51.420;-0.040;2023-11-19T03:40:06;42.15;;;5.50;;
45836;SDS011;31548;51.420;-0.040;2023-11-19T03:42:34;27.58;;;3.83;;
45836;SDS011;31548;51.420;-0.040;2023-11-19T03:45:01;44.28;;;5.03;;
45836;SDS011;31548;51.420;-0.040;2023-11-19T03:47:32;41.15;;;3.83;;
45836;SDS011;31548;51.420;-0.040;2023-11-19T03:49:59;33.45;;;5.45;;
45836;SDS011;31548;51.420;-0.040;2023-11-19T03:52:27;34.97;;;5.47;;
45836;SDS011;31548;51.420;-0.040;2023-11-19T03:54:55;37.80;;;5.72;;
45836;SDS011;31548;51.420;-0.040;2023-11-19T03:57:28;32.22;;;5.30;;
45836;SDS011;31548;51.420;-0.040;2023-11-19T03:59:56;36.47;;;4.35;;
45836;SDS011;31548;51.420;-0.040;2023-11-19T04:02:25;45.25;;;7.75;;
45836;SDS011;31548;51.420;-0.040;2023-11-19T04:04:55;30.17;;;4.72;;
45836;SDS011;31548;51.420;-0.040;2023-11-19T04:07:22;38.38;;;5.13;;
45836;SDS011;31548;51.420;-0.040;2023-11-19T04:09:49;48.95;;;5.40;;
45836;SDS011;31548;51.420;-0.040;2023-11-19T04:12:17;42.40;;;5.95;;
45836;SDS011;31548;51.420;-0.040;2023-11-19T04:14:45;51.65;;;5.43;;
45836;SDS011;31548;51.420;-0.040;2023-11-19T04:17:12;37.53;;;4.88;;
45836;SDS011;31548;51.420;-0.040;2023-11-19T04:19:39;49.55;;;4.32;;
45836;SDS011;31548;51.420;-0.040;2023-11-19T04:22:08;37.85;;;5.30;;
45836;SDS011;31548;51.420;-0.040;2023-11-19T04:24:35;35.45;;;4.82;;
45836;SDS011;31548;51.420;-0.040;2023-11-19T04:27:05;37.70;;;4.55;;
45836;SDS011;31548;51.420;-0.040;2023-11-19T04:29:33;30.67;;;4.60;;
45836;SDS011;31548;51.420;-0.040;2023-11-19T04:32:01;38.92;;;4.90;;
45836;SDS011;31548;51.420;-0.040;2023-11-19T04:34:28;37.75;;;5.03;;
45836;SDS011;31548;51.420;-0.040;2023-11-19T04:36:55;41.17;;;5.80;;
45836;SDS011;31548;51.420;-0.040;2023-11-19T04:39:23;42.45;;;6.47;;
45836;SDS011;31548;51.420;-0.040;2023-11-19T04:41:50;48.38;;;5.22;;
45836;SDS011;31548;51.420;-0.040;2023-11-19T04:44:21;41.90;;;4.97;;
45836;SDS011;31548;51.420;-0.040;2023-11-19T04:46:48;50.70;;;5.97;;
45836;SDS011;31548;51.420;-0.040;2023-11-19T04:49:16;37.33;;;5.20;;
45836;SDS011;31548;51.420;-0.040;2023-11-19T04:51:45;50.63;;;5.68;;
45836;SDS011;31548;51.420;-0.040;2023-11-19T04:54:16;49.67;;;5.65;;
45836;SDS011;31548;51.420;-0.040;2023-11-19T04:56:46;33.38;;;5.03;;
45836;SDS011;31548;51.420;-0.040;2023-11-19T04:59:14;38.28;;;5.15;;
45836;SDS011;31548;51.420;-0.040;2023-11-19T05:01:46;35.25;;;4.75;;
45836;SDS011;31548;51.420;-0.040;2023-11-19T05:04:14;48.83;;;5.57;;
45836;SDS011;31548;51.420;-0.040;2023-11-19T05:06:42;50.17;;;5.57;;
45836;SDS011;31548;51.420;-0.040;2023-11-19T05:09:09;42.47;;;6.07;;
45836;SDS011;31548;51.420;-0.040;2023-11-19T05:11:39;42.85;;;5.32;;
45836;SDS011;31548;51.420;-0.040;2023-11-19T05:14:10;42.00;;;4.28;;
45836;SDS011;31548;51.420;-0.040;2023-11-19T05:16:39;41.33;;;5.60;;
45836;SDS011;31548;51.420;-0.040;2023-11-19T05:19:07;36.47;;;4.60;;
45836;SDS011;31548;51.420;-0.040;2023-11-19T05:21:35;39.17;;;4.70;;
45836;SDS011;31548;51.420;-0.040;2023-11-19T05:24:03;30.55;;;4.25;;
45836;SDS011;31548;51.420;-0.040;2023-11-19T05:26:31;41.30;;;4.43;;
45836;SDS011;31548;51.420;-0.040;2023-11-19T05:28:58;50.40;;;7.47;;
45836;SDS011;31548;51.420;-0.040;2023-11-19T05:31:25;40.75;;;4.63;;
45836;SDS011;31548;51.420;-0.040;2023-11-19T05:33:53;33.92;;;4.47;;
45836;SDS011;31548;51.420;-0.040;2023-11-19T05:36:20;36.67;;;5.28;;
45836;SDS011;31548;51.420;-0.040;2023-11-19T05:38:48;40.67;;;5.95;;
45836;SDS011;31548;51.420;-0.040;2023-11-19T05:41:15;38.58;;;5.63;;
45836;SDS011;31548;51.420;-0.040;2023-11-19T05:43:42;30.13;;;3.45;;
45836;SDS011;31548;51.420;-0.040;2023-11-19T05:46:10;34.28;;;4.75;;
45836;SDS011;31548;51.420;-0.040;2023-11-19T05:48:40;45.72;;;5.18;;
45836;SDS011;31548;51.420;-0.040;2023-11-19T05:51:07;42.50;;;5.75;;
45836;SDS011;31548;51.420;-0.040;2023-11-19T05:53:35;40.67;;;4.80;;
45836;SDS011;31548;51.420;-0.040;2023-11-19T05:56:02;35.28;;;5.20;;
45836;SDS011;31548;51.420;-0.040;2023-11-19T05:58:30;33.40;;;5.03;;
45836;SDS011;31548;51.420;-0.040;2023-11-19T06:00:59;44.78;;;4.50;;
45836;SDS011;31548;51.420;-0.040;2023-11-19T06:03:27;33.90;;;3.97;;
45836;SDS011;31548;51.420;-0.040;2023-11-19T06:05:55;39.80;;;6.82;;
45836;SDS011;31548;51.420;-0.040;2023-11-19T06:08:22;34.20;;;6.43;;
45836;SDS011;31548;51.420;-0.040;2023-11-19T06:10:50;32.67;;;4.07;;
45836;SDS011;31548;51.420;-0.040;2023-11-19T06:13:18;38.63;;;4.75;;
45836;SDS011;31548;51.420;-0.040;2023-11-19T06:15:50;40.38;;;4.78;;
45836;SDS011;31548;51.420;-0.040;2023-11-19T06:18:17;42.65;;;4.93;;
45836;SDS011;31548;51.420;-0.040;2023-11-19T06:20:47;40.95;;;4.53;;
45836;SDS011;31548;51.420;-0.040;2023-11-19T06:23:14;36.03;;;3.97;;
45836;SDS011;31548;51.420;-0.040;2023-11-19T06:25:42;37.95;;;5.00;;
45836;SDS011;31548;51.420;-0.040;2023-11-19T06:28:09;32.67;;;4.38;;
45836;SDS011;31548;51.420;-0.040;2023-11-19T06:30:36;47.85;;;5.57;;
45836;SDS011;31548;51.420;-0.040;2023-11-19T06:33:04;32.58;;;4.18;;
45836;SDS011;31548;51.420;-0.040;2023-11-19T06:35:31;33.00;;;5.18;;
45836;SDS011;31548;51.420;-0.040;2023-11-19T06:38:03;43.95;;;5.25;;
45836;SDS011;31548;51.420;-0.040;2023-11-19T06:40:33;39.45;;;5.10;;
45836;SDS011;31548;51.420;-0.040;2023-11-19T06:43:05;29.95;;;4.22;;
45836;SDS011;31548;51.420;-0.040;2023-11-19T06:45:35;41.17;;;4.90;;
45836;SDS011;31548;51.420;-0.040;2023-11-19T06:48:05;48.53;;;5.15;;
45836;SDS011;31548;51.420;-0.040;2023-11-19T06:50:32;34.67;;;4.68;;
45836;SDS011;31548;51.420;-0.040;2023-11-19T06:53:00;36.08;;;3.78;;
45836;SDS011;31548;51.420;-0.040;2023-11-19T06:55:27;35.17;;;4.10;;
45836;SDS011;31548;51.420;-0.040;2023-11-19T06:57:55;30.48;;;4.00;;
45836;SDS011;31548;51.420;-0.040;2023-11-19T07:00:23;33.58;;;4.57;;
45836;SDS011;31548;51.420;-0.040;2023-11-19T07:02:50;39.13;;;4.25;;
45836;SDS011;31548;51.420;-0.040;2023-11-19T07:05:18;45.30;;;4.95;;
45836;SDS011;31548;51.420;-0.040;2023-11-19T07:07:45;38.53;;;4.13;;
45836;SDS011;31548;51.420;-0.040;2023-11-19T07:10:13;28.75;;;3.40;;
45836;SDS011;31548;51.420;-0.040;2023-11-19T07:12:42;29.55;;;3.67;;
45836;SDS011;31548;51.420;-0.040;2023-11-19T07:15:11;33.90;;;4.82;;
45836;SDS011;31548;51.420;-0.040;2023-11-19T07:17:39;31.27;;;4.40;;
45836;SDS011;31548;51.420;-0.040;2023-11-19T07:20:10;34.70;;;3.63;;
45836;SDS011;31548;51.420;-0.040;2023-11-19T07:22:43;24.70;;;4.38;;
45836;SDS011;31548;51.420;-0.040;2023-11-19T07:25:13;35.53;;;4.20;;
45836;SDS011;31548;51.420;-0.040;2023-11-19T07:27:40;26.52;;;4.63;;
45836;SDS011;31548;51.420;-0.040;2023-11-19T07:30:07;38.28;;;3.45;;
45836;SDS011;31548;51.420;-0.040;2023-11-19T07:32:35;26.70;;;3.20;;
45836;SDS011;31548;51.420;-0.040;2023-11-19T07:35:02;32.13;;;5.20;;
45836;SDS011;31548;51.420;-0.040;2023-11-19T07:37:31;35.60;;;3.83;;
45836;SDS011;31548;51.420;-0.040;2023-11-19T07:39:58;34.30;;;5.13;;
45836;SDS011;31548;51.420;-0.040;2023-11-19T07:42:25;18.52;;;2.65;;
45836;SDS011;31548;51.420;-0.040;2023-11-19T07:44:53;16.23;;;2.13;;
45836;SDS011;31548;51.420;-0.040;2023-11-19T07:47:22;31.08;;;3.85;;
45836;SDS011;31548;51.420;-0.040;2023-11-19T07:49:50;28.90;;;3.30;;
45836;SDS011;31548;51.420;-0.040;2023-11-19T07:52:18;26.40;;;2.88;;
45836;SDS011;31548;51.420;-0.040;2023-11-19T07:54:48;34.67;;;3.20;;
45836;SDS011;31548;51.420;-0.040;2023-11-19T07:57:15;17.77;;;2.17;;
45836;SDS011;31548;51.420;-0.040;2023-11-19T07:59:43;28.38;;;2.50;;
45836;SDS011;31548;51.420;-0.040;2023-11-19T08:02:10;26.38;;;3.42;;
45836;SDS011;31548;51.420;-0.040;2023-11-19T08:04:37;27.95;;;4.28;;
45836;SDS011;31548;51.420;-0.040;2023-11-19T08:07:11;34.53;;;3.53;;
45836;SDS011;31548;51.420;-0.040;2023-11-19T08:09:39;19.80;;;2.80;;
45836;SDS011;31548;51.420;-0.040;2023-11-19T08:12:06;25.35;;;2.97;;
45836;SDS011;31548;51.420;-0.040;2023-11-19T08:14:34;29.63;;;3.28;;
45836;SDS011;31548;51.420;-0.040;2023-11-19T08:17:02;30.15;;;3.15;;
45836;SDS011;31548;51.420;-0.040;2023-11-19T08:19:29;22.40;;;2.50;;
45836;SDS011;31548;51.420;-0.040;2023-11-19T08:21:58;21.48;;;3.63;;
45836;SDS011;31548;51.420;-0.040;2023-11-19T08:24:25;22.25;;;2.47;;
45836;SDS011;31548;51.420;-0.040;2023-11-19T08:26:53;20.73;;;3.10;;
45836;SDS011;31548;51.420;-0.040;2023-11-19T08:29:23;22.23;;;3.75;;
45836;SDS011;31548;51.420;-0.040;2023-11-19T08:31:51;25.65;;;2.35;;
45836;SDS011;31548;51.420;-0.040;2023-11-19T08:34:18;23.42;;;3.15;;
45836;SDS011;31548;51.420;-0.040;2023-11-19T08:36:46;19.30;;;2.70;;
45836;SDS011;31548;51.420;-0.040;2023-11-19T08:39:17;16.90;;;2.13;;
45836;SDS011;31548;51.420;-0.040;2023-11-19T08:41:45;25.42;;;2.85;;
45836;SDS011;31548;51.420;-0.040;2023-11-19T08:44:12;30.13;;;2.33;;
45836;SDS011;31548;51.420;-0.040;2023-11-19T08:46:46;25.08;;;3.35;;
45836;SDS011;31548;51.420;-0.040;2023-11-19T08:49:14;19.40;;;2.55;;
45836;SDS011;31548;51.420;-0.040;2023-11-19T08:51:42;21.63;;;2.95;;
45836;SDS011;31548;51.420;-0.040;2023-11-19T08:54:09;28.70;;;3.22;;
45836;SDS011;31548;51.420;-0.040;2023-11-19T08:56:38;30.50;;;3.13;;
45836;SDS011;31548;51.420;-0.040;2023-11-19T08:59:06;30.98;;;4.07;;
45836;SDS011;31548;51.420;-0.040;2023-11-19T09:01:33;29.70;;;3.85;;
45836;SDS011;31548;51.420;-0.040;2023-11-19T09:04:01;27.17;;;3.67;;
45836;SDS011;31548;51.420;-0.040;2023-11-19T09:06:28;27.23;;;3.25;;
45836;SDS011;31548;51.420;-0.040;2023-11-19T09:08:55;29.55;;;2.47;;
45836;SDS011;31548;51.420;-0.040;2023-11-19T09:11:27;35.75;;;5.43;;
45836;SDS011;31548;51.420;-0.040;2023-11-19T09:13:55;30.42;;;3.95;;
45836;SDS011;31548;51.420;-0.040;2023-11-19T09:16:22;32.28;;;3.28;;
45836;SDS011;31548;51.420;-0.040;2023-11-19T09:18:49;30.70;;;4.38;;
45836;SDS011;31548;51.420;-0.040;2023-11-19T09:21:17;31.63;;;2.83;;
45836;SDS011;31548;51.420;-0.040;2023-11-19T09:23:44;30.58;;;3.95;;
45836;SDS011;31548;51.420;-0.040;2023-11-19T09:26:13;22.27;;;3.30;;
45836;SDS011;31548;51.420;-0.040;2023-11-19T09:28:41;29.08;;;3.08;;
45836;SDS011;31548;51.420;-0.040;2023-11-19T09:31:17;40.35;;;3.85;;
45836;SDS011;31548;51.420;-0.040;2023-11-19T09:33:45;34.55;;;3.60;;
45836;SDS011;31548;51.420;-0.040;2023-11-19T09:36:12;27.73;;;3.72;;
45836;SDS011;31548;51.420;-0.040;2023-11-19T09:38:43;38.20;;;4.78;;
45836;SDS011;31548;51.420;-0.040;2023-11-19T09:41:11;24.13;;;5.55;;
45836;SDS011;31548;51.420;-0.040;2023-11-19T09:43:40;36.22;;;3.80;;
45836;SDS011;31548;51.420;-0.040;2023-11-19T09:46:12;22.88;;;3.20;;
45836;SDS011;31548;51.420;-0.040;2023-11-19T09:48:42;33.90;;;4.22;;
45836;SDS011;31548;51.420;-0.040;2023-11-19T09:51:11;32.95;;;4.28;;
45836;SDS011;31548;51.420;-0.040;2023-11-19T09:53:39;34.00;;;3.78;;
45836;SDS011;31548;51.420;-0.040;2023-11-19T09:56:06;27.30;;;3.60;;
45836;SDS011;31548;51.420;-0.040;2023-11-19T09:58:39;25.85;;;3.08;;
45836;SDS011;31548;51.420;-0.040;2023-11-19T10:01:08;29.77;;;3.85;;
45836;SDS011;31548;51.420;-0.040;2023-11-19T10:03:41;23.98;;;3.55;;
45836;SDS011;31548;51.420;-0.040;2023-11-19T10:06:10;28.33;;;3.47;;
45836;SDS011;31548;51.420;-0.040;2023-11-19T10:08:39;23.58;;;3.38;;
45836;SDS011;31548;51.420;-0.040;2023-11-19T10:11:07;25.38;;;3.05;;
45836;SDS011;31548;51.420;-0.040;2023-11-19T10:13:35;25.20;;;4.25;;
45836;SDS011;31548;51.420;-0.040;2023-11-19T10:16:10;34.42;;;3.35;;
45836;SDS011;31548;51.420;-0.040;2023-11-19T10:18:44;28.92;;;4.00;;
45836;SDS011;31548;51.420;-0.040;2023-11-19T10:21:18;26.13;;;4.10;;
45836;SDS011;31548;51.420;-0.040;2023-11-19T10:26:18;34.83;;;4.22;;
45836;SDS011;31548;51.420;-0.040;2023-11-19T10:28:47;29.35;;;3.65;;
45836;SDS011;31548;51.420;-0.040;2023-11-19T10:31:15;20.65;;;2.13;;
45836;SDS011;31548;51.420;-0.040;2023-11-19T10:33:44;24.77;;;2.95;;
45836;SDS011;31548;51.420;-0.040;2023-11-19T10:36:12;26.50;;;3.28;;
45836;SDS011;31548;51.420;-0.040;2023-11-19T10:38:41;24.73;;;3.28;;
45836;SDS011;31548;51.420;-0.040;2023-11-19T10:43:55;20.20;;;2.88;;
45836;SDS011;31548;51.420;-0.040;2023-11-19T10:46:22;16.60;;;2.22;;
45836;SDS011;31548;51.420;-0.040;2023-11-19T10:49:02;18.60;;;2.38;;
45836;SDS011;31548;51.420;-0.040;2023-11-19T10:51:29;19.27;;;2.17;;
45836;SDS011;31548;51.420;-0.040;2023-11-19T10:54:00;24.80;;;2.40;;
45836;SDS011;31548;51.420;-0.040;2023-11-19T10:56:33;15.95;;;2.83;;
45836;SDS011;31548;51.420;-0.040;2023-11-19T10:59:02;18.73;;;1.85;;
45836;SDS011;31548;51.420;-0.040;2023-11-19T11:01:48;14.65;;;2.42;;
45836;SDS011;31548;51.420;-0.040;2023-11-19T11:04:24;15.93;;;1.70;;
45836;SDS011;31548;51.420;-0.040;2023-11-19T11:06:56;15.43;;;2.22;;
45836;SDS011;31548;51.420;-0.040;2023-11-19T11:09:28;20.23;;;2.25;;
45836;SDS011;31548;51.420;-0.040;2023-11-19T11:11:58;16.55;;;1.70;;
45836;SDS011;31548;51.420;-0.040;2023-11-19T11:14:26;12.38;;;1.63;;
45836;SDS011;31548;51.420;-0.040;2023-11-19T11:16:54;19.00;;;2.05;;
45836;SDS011;31548;51.420;-0.040;2023-11-19T11:19:25;21.73;;;2.28;;
45836;SDS011;31548;51.420;-0.040;2023-11-19T11:21:53;15.25;;;2.15;;
45836;SDS011;31548;51.420;-0.040;2023-11-19T11:27:10;17.58;;;3.10;;
45836;SDS011;31548;51.420;-0.040;2023-11-19T11:29:52;20.08;;;2.80;;
45836;SDS011;31548;51.420;-0.040;2023-11-19T11:37:50;16.92;;;1.40;;
45836;SDS011;31548;51.420;-0.040;2023-11-19T11:40:27;23.45;;;2.13;;
45836;SDS011;31548;51.420;-0.040;2023-11-19T11:42:54;15.07;;;1.83;;
45836;SDS011;31548;51.420;-0.040;2023-11-19T11:45:38;14.73;;;2.83;;
45836;SDS011;31548;51.420;-0.040;2023-11-19T11:48:10;20.27;;;2.25;;
45836;SDS011;31548;51.420;-0.040;2023-11-19T11:50:48;17.48;;;2.13;;
45836;SDS011;31548;51.420;-0.040;2023-11-19T11:53:17;24.42;;;3.22;;
45836;SDS011;31548;51.420;-0.040;2023-11-19T11:58:17;17.90;;;1.67;;
45836;SDS011;31548;51.420;-0.040;2023-11-19T12:00:48;16.10;;;1.70;;
45836;SDS011;31548;51.420;-0.040;2023-11-19T12:03:19;15.90;;;1.52;;
45836;SDS011;31548;51.420;-0.040;2023-11-19T12:05:50;19.55;;;1.67;;
45836;SDS011;31548;51.420;-0.040;2023-11-19T12:08:20;23.88;;;2.40;;
45836;SDS011;31548;51.420;-0.040;2023-11-19T12:10:53;18.52;;;2.30;;
45836;SDS011;31548;51.420;-0.040;2023-11-19T12:13:26;9.95;;;1.52;;
45836;SDS011;31548;51.420;-0.040;2023-11-19T12:16:10;17.13;;;2.83;;
45836;SDS011;31548;51.420;-0.040;2023-11-19T12:18:38;16.52;;;1.90;;
45836;SDS011;31548;51.420;-0.040;2023-11-19T12:21:06;23.77;;;1.60;;
45836;SDS011;31548;51.420;-0.040;2023-11-19T12:23:43;14.52;;;2.20;;
45836;SDS011;31548;51.420;-0.040;2023-11-19T12:26:21;21.38;;;2.58;;
45836;SDS011;31548;51.420;-0.040;2023-11-19T12:28:58;17.45;;;2.72;;
45836;SDS011;31548;51.420;-0.040;2023-11-19T12:31:27;16.80;;;1.83;;
45836;SDS011;31548;51.420;-0.040;2023-11-19T12:33:54;16.80;;;2.30;;
45836;SDS011;31548;51.420;-0.040;2023-11-19T12:36:22;19.27;;;1.67;;
45836;SDS011;31548;51.420;-0.040;2023-11-19T12:38:49;18.52;;;1.83;;
45836;SDS011;31548;51.420;-0.040;2023-11-19T12:41:17;15.68;;;1.52;;
45836;SDS011;31548;51.420;-0.040;2023-11-19T12:43:49;17.63;;;2.67;;
45836;SDS011;31548;51.420;-0.040;2023-11-19T12:48:48;17.42;;;2.22;;
45836;SDS011;31548;51.420;-0.040;2023-11-19T12:51:17;16.52;;;1.90;;
45836;SDS011;31548;51.420;-0.040;2023-11-19T12:53:48;7.68;;;1.38;;
45836;SDS011;31548;51.420;-0.040;2023-11-19T12:56:21;16.60;;;1.73;;
45836;SDS011;31548;51.420;-0.040;2023-11-19T12:58:49;12.35;;;1.75;;
45836;SDS011;31548;51.420;-0.040;2023-11-19T13:01:17;13.45;;;1.63;;
45836;SDS011;31548;51.420;-0.040;2023-11-19T13:03:46;13.10;;;1.52;;
45836;SDS011;31548;51.420;-0.040;2023-11-19T13:06:16;9.70;;;1.45;;
45836;SDS011;31548;51.420;-0.040;2023-11-19T13:08:47;18.80;;;1.73;;
45836;SDS011;31548;51.420;-0.040;2023-11-19T13:11:29;16.65;;;1.75;;
45836;SDS011;31548;51.420;-0.040;2023-11-19T13:14:03;15.40;;;1.48;;
45836;SDS011;31548;51.420;-0.040;2023-11-19T13:16:31;16.17;;;2.50;;
45836;SDS011;31548;51.420;-0.040;2023-11-19T13:18:59;14.38;;;1.63;;
45836;SDS011;31548;51.420;-0.040;2023-11-19T13:21:27;13.00;;;1.77;;
45836;SDS011;31548;51.420;-0.040;2023-11-19T13:23:56;13.55;;;1.55;;
45836;SDS011;31548;51.420;-0.040;2023-11-19T13:26:24;17.88;;;2.45;;
45836;SDS011;31548;51.420;-0.040;2023-11-19T13:28:51;13.80;;;1.67;;
45836;SDS011;31548;51.420;-0.040;2023-11-19T13:31:18;13.73;;;1.55;;
45836;SDS011;31548;51.420;-0.040;2023-11-19T13:33:46;12.55;;;1.52;;
45836;SDS011;31548;51.420;-0.040;2023-11-19T13:36:13;16.40;;;1.77;;
45836;SDS011;31548;51.420;-0.040;2023-11-19T13:38:43;8.88;;;1.38;;
45836;SDS011;31548;51.420;-0.040;2023-11-19T13:41:14;12.73;;;1.10;;
45836;SDS011;31548;51.420;-0.040;2023-11-19T13:43:41;9.77;;;1.30;;
45836;SDS011;31548;51.420;-0.040;2023-11-19T13:46:08;12.98;;;1.20;;
45836;SDS011;31548;51.420;-0.040;2023-11-19T13:48:37;10.18;;;1.15;;
45836;SDS011;31548;51.420;-0.040;2023-11-19T13:51:05;15.13;;;1.30;;
45836;SDS011;31548;51.420;-0.040;2023-11-19T13:53:33;14.38;;;1.83;;
45836;SDS011;31548;51.420;-0.040;2023-11-19T13:56:03;14.80;;;1.55;;
45836;SDS011;31548;51.420;-0.040;2023-11-19T13:58:30;14.32;;;1.77;;
45836;SDS011;31548;51.420;-0.040;2023-11-19T14:00:58;6.95;;;1.10;;
45836;SDS011;31548;51.420;-0.040;2023-11-19T14:03:25;16.63;;;1.45;;
45836;SDS011;31548;51.420;-0.040;2023-11-19T14:05:53;6.80;;;1.13;;
45836;SDS011;31548;51.420;-0.040;2023-11-19T14:08:22;13.68;;;1.52;;
45836;SDS011;31548;51.420;-0.040;2023-11-19T14:10:51;7.75;;;1.17;;
45836;SDS011;31548;51.420;-0.040;2023-11-19T14:13:22;17.88;;;1.45;;
45836;SDS011;31548;51.420;-0.040;2023-11-19T14:15:50;9.20;;;1.42;;
45836;SDS011;31548;51.420;-0.040;2023-11-19T14:18:18;14.70;;;0.93;;
45836;SDS011;31548;51.420;-0.040;2023-11-19T14:20:46;9.95;;;1.08;;
45836;SDS011;31548;51.420;-0.040;2023-11-19T14:23:13;16.70;;;1.10;;
45836;SDS011;31548;51.420;-0.040;2023-11-19T14:25:40;15.38;;;1.05;;
45836;SDS011;31548;51.420;-0.040;2023-11-19T14:28:08;7.70;;;0.90;;
45836;SDS011;31548;51.420;-0.040;2023-11-19T14:30:35;10.80;;;0.80;;
45836;SDS011;31548;51.420;-0.040;2023-11-19T14:33:03;9.48;;;1.23;;
45836;SDS011;31548;51.420;-0.040;2023-11-19T14:35:31;8.75;;;1.90;;
45836;SDS011;31548;51.420;-0.040;2023-11-19T14:38:00;5.63;;;0.88;;
45836;SDS011;31548;51.420;-0.040;2023-11-19T14:40:31;13.48;;;1.00;;
45836;SDS011;31548;51.420;-0.040;2023-11-19T14:43:01;15.88;;;1.02;;
45836;SDS011;31548;51.420;-0.040;2023-11-19T14:45:29;6.15;;;0.90;;
45836;SDS011;31548;51.420;-0.040;2023-11-19T14:48:07;14.00;;;1.50;;
45836;SDS011;31548;51.420;-0.040;2023-11-19T14:50:35;8.32;;;1.20;;